Time;durP1;ratioP1;P1;durP2;ratioP2;P2;SDS_P1;SDS_P2;PMS_P1;PMS_P2;Temp;Humidity;BMP_temperature;BMP_pressure;BME280_temperature;BME280_humidity;BME280_pressure;Samples;Min_cycle;Max_cycle;Signal;HPM_P1;HPM_P2
2024/01/26 00:01:38;;;;;;;0.40;0.40;;;;;;;3.92;100.00;100679.00;5082540;28;20031;-78
2024/01/26 00:04:04;;;;;;;0.50;0.50;;;;;;;3.87;100.00;100681.22;5098589;28;20035;-78
2024/01/26 00:06:30;;;;;;;0.47;0.47;;;;;;;3.84;100.00;100692.13;5098399;28;20047;-77
2024/01/26 00:08:56;;;;;;;0.40;0.40;;;;;;;3.91;100.00;100705.72;5098236;28;20024;-78
2024/01/26 00:11:24;;;;;;;0.50;0.50;;;;;;;4.04;100.00;100711.66;5114823;28;20042;-78
2024/01/26 00:13:49;;;;;;;0.50;0.50;;;;;;;4.11;100.00;100720.78;5098586;28;20440;-77
2024/01/26 00:16:15;;;;;;;0.50;0.50;;;;;;;4.17;100.00;100738.88;5098414;28;20051;-78
2024/01/26 00:18:40;;;;;;;0.47;0.47;;;;;;;4.21;100.00;100746.59;5081552;28;20035;-77
2024/01/26 00:21:07;;;;;;;0.40;0.40;;;;;;;4.11;100.00;100750.06;5097868;28;20027;-78
2024/01/26 00:23:32;;;;;;;0.40;0.40;;;;;;;3.99;100.00;100759.09;5098031;28;20020;-78
2024/01/26 00:25:58;;;;;;;0.40;0.40;;;;;;;3.88;100.00;100773.34;5081728;28;20028;-79
2024/01/26 00:28:24;;;;;;;0.40;0.40;;;;;;;3.85;100.00;100789.56;5114895;28;20024;-78
2024/01/26 00:30:49;;;;;;;0.40;0.40;;;;;;;3.92;100.00;100796.06;5065349;28;20039;-78
2024/01/26 00:33:15;;;;;;;0.40;0.40;;;;;;;3.96;100.00;100805.44;5097810;28;20433;-78
2024/01/26 00:35:43;;;;;;;0.50;0.50;;;;;;;3.99;100.00;100819.47;5097894;28;20032;-78
2024/01/26 00:38:09;;;;;;;0.50;0.50;;;;;;;4.10;100.00;100824.69;5098007;28;20034;-78
2024/01/26 00:40:34;;;;;;;0.40;0.40;;;;;;;4.18;100.00;100831.06;5097880;28;20059;-78
2024/01/26 00:43:00;;;;;;;0.50;0.50;;;;;;;4.25;100.00;100838.50;5081169;28;20039;-78
2024/01/26 00:45:26;;;;;;;0.50;0.50;;;;;;;4.18;100.00;100844.38;5097353;28;20376;-78
2024/01/26 00:47:51;;;;;;;0.50;0.50;;;;;;;4.11;100.00;100850.34;5080927;28;20030;-78
2024/01/26 00:50:17;;;;;;;0.47;0.47;;;;;;;4.05;100.00;100850.84;5114300;28;20391;-77
2024/01/26 00:52:43;;;;;;;0.40;0.40;;;;;;;4.02;100.00;100853.78;5114673;28;20030;-78
2024/01/26 00:55:08;;;;;;;0.40;0.40;;;;;;;3.92;100.00;100853.75;5080930;28;20066;-77
2024/01/26 00:57:34;;;;;;;0.40;0.40;;;;;;;3.88;100.00;100869.09;5097463;28;20031;-78
2024/01/26 01:00:00;;;;;;;0.40;0.40;;;;;;;4.00;100.00;100898.31;5080669;28;20119;-79
2024/01/26 01:02:25;;;;;;;0.60;0.60;;;;;;;4.02;100.00;100934.44;5080824;28;20035;-79
2024/01/26 01:04:51;;;;;;;0.50;0.50;;;;;;;3.45;100.00;100946.28;5114427;28;20055;-79
2024/01/26 01:07:17;;;;;;;0.40;0.40;;;;;;;3.19;100.00;100935.94;5080583;28;20035;-78
2024/01/26 01:09:42;;;;;;;0.40;0.40;;;;;;;3.19;100.00;100948.41;5080604;28;20430;-79
2024/01/26 01:12:08;;;;;;;0.50;0.50;;;;;;;3.26;100.00;100954.91;5080349;28;20038;-78
2024/01/26 01:14:36;;;;;;;0.50;0.50;;;;;;;3.28;100.00;100958.28;5096713;28;20054;-78
2024/01/26 01:17:04;;;;;;;0.40;0.40;;;;;;;3.28;100.00;100958.28;5096925;28;20046;-78
2024/01/26 01:19:30;;;;;;;0.50;0.50;;;;;;;3.23;100.00;100977.28;5080517;28;20100;-78
2024/01/26 01:21:56;;;;;;;0.50;0.50;;;;;;;3.15;100.00;100990.31;5097006;28;20088;-78
2024/01/26 01:24:23;;;;;;;0.50;0.50;;;;;;;2.98;100.00;100985.50;5080137;28;20467;-78
2024/01/26 01:26:49;;;;;;;0.50;0.50;;;;;;;2.81;100.00;101000.09;5080126;28;20034;-79
2024/01/26 01:29:14;;;;;;;0.50;0.50;;;;;;;2.75;100.00;100996.13;5080283;28;20043;-78
2024/01/26 01:31:40;;;;;;;0.40;0.40;;;;;;;2.77;100.00;101019.88;5080163;28;20035;-78
2024/01/26 01:34:06;;;;;;;0.50;0.50;;;;;;;2.75;100.00;101027.13;5080137;28;20027;-79
2024/01/26 01:36:31;;;;;;;0.50;0.50;;;;;;;2.65;100.00;101024.34;5096248;28;20552;-79
2024/01/26 01:38:57;;;;;;;0.50;0.50;;;;;;;2.66;100.00;101039.31;5096659;28;20035;-79
2024/01/26 01:41:23;;;;;;;0.50;0.50;;;;;;;2.71;100.00;101046.91;5079920;28;20105;-79
2024/01/26 01:43:56;;;;;;;0.50;0.50;;;;;;;2.74;100.00;101047.53;5097116;28;20387;-79
2024/01/26 01:46:22;;;;;;;0.50;0.50;;;;;;;2.74;100.00;101052.00;5096556;28;20490;-79
2024/01/26 01:48:49;;;;;;;0.50;0.50;;;;;;;2.72;100.00;101051.25;5079724;28;20063;-79
2024/01/26 01:51:15;;;;;;;0.50;0.50;;;;;;;2.66;100.00;101054.38;5113306;28;20485;-79
2024/01/26 01:53:40;;;;;;;0.50;0.50;;;;;;;2.68;100.00;101055.13;5096562;28;20024;-79
2024/01/26 01:56:10;;;;;;;0.50;0.50;;;;;;;2.82;100.00;101057.56;5096301;28;20039;-79
2024/01/26 01:58:37;;;;;;;0.52;0.52;;;;;;;2.84;100.00;101061.78;5079631;28;20089;-80
2024/01/26 02:01:04;;;;;;;0.50;0.50;;;;;;;2.73;100.00;101055.63;5112984;28;20025;-79
2024/01/26 02:03:30;;;;;;;0.50;0.50;;;;;;;2.70;100.00;101069.09;5096276;28;20380;-79
2024/01/26 02:05:56;;;;;;;0.50;0.50;;;;;;;2.71;100.00;101074.31;5096178;28;20034;-79
2024/01/26 02:08:22;;;;;;;0.50;0.50;;;;;;;2.78;100.00;101077.31;5095893;28;20067;-79
2024/01/26 02:10:47;;;;;;;0.55;0.55;;;;;;;2.72;100.00;101091.94;5096428;28;20067;-79
2024/01/26 02:13:13;;;;;;;0.50;0.50;;;;;;;2.90;100.00;101096.81;5112985;28;20119;-79
2024/01/26 02:15:41;;;;;;;0.50;0.50;;;;;;;2.92;100.00;101105.50;5079361;28;20383;-79
2024/01/26 02:18:15;;;;;;;0.40;0.40;;;;;;;3.02;100.00;101115.31;5096751;28;20478;-79
2024/01/26 02:20:41;;;;;;;0.50;0.50;;;;;;;3.03;100.00;101119.63;5096084;28;20038;-79
2024/01/26 02:23:06;;;;;;;0.50;0.50;;;;;;;3.06;100.00;101140.66;5096312;28;20031;-79
2024/01/26 02:25:32;;;;;;;0.50;0.50;;;;;;;3.08;100.00;101140.56;5095064;28;20020;-79
2024/01/26 02:27:57;;;;;;;0.50;0.50;;;;;;;3.13;100.00;101148.19;5079168;28;20444;-79
2024/01/26 02:30:23;;;;;;;0.50;0.50;;;;;;;3.32;100.00;101158.22;5095896;28;20028;-79
2024/01/26 02:32:49;;;;;;;0.50;0.50;;;;;;;3.61;100.00;101164.75;5079941;28;20047;-79
2024/01/26 02:35:15;;;;;;;0.40;0.40;;;;;;;3.73;100.00;101166.47;5095567;28;20456;-79
2024/01/26 02:37:40;;;;;;;0.40;0.40;;;;;;;3.82;100.00;101172.84;5095478;28;20023;-79
2024/01/26 02:40:07;;;;;;;0.50;0.50;;;;;;;3.92;100.00;101192.44;5095746;28;20407;-79
2024/01/26 02:42:33;;;;;;;0.50;0.50;;;;;;;3.93;100.00;101212.75;5079253;28;20032;-79
2024/01/26 02:44:59;;;;;;;0.50;0.50;;;;;;;3.87;100.00;101217.72;5095778;28;20034;-79
2024/01/26 02:47:24;;;;;;;0.40;0.40;;;;;;;3.73;100.00;101224.97;5095832;28;20430;-79
2024/01/26 02:49:50;;;;;;;0.50;0.50;;;;;;;3.67;100.00;101233.41;5112396;28;20066;-79
2024/01/26 02:52:15;;;;;;;0.50;0.50;;;;;;;3.59;100.00;101251.78;5112257;28;20028;-80
2024/01/26 02:54:41;;;;;;;0.50;0.50;;;;;;;3.65;100.00;101259.31;5112455;28;20390;-79
2024/01/26 02:57:07;;;;;;;0.40;0.40;;;;;;;3.69;100.00;101254.59;5095203;28;20031;-79
2024/01/26 02:59:32;;;;;;;0.50;0.50;;;;;;;3.65;100.00;101274.38;5112128;28;20024;-79
2024/01/26 03:01:58;;;;;;;0.50;0.50;;;;;;;3.56;100.00;101275.94;5078796;28;20067;-79
2024/01/26 03:04:24;;;;;;;0.40;0.40;;;;;;;3.47;100.00;101282.81;5095236;28;20107;-79
2024/01/26 03:06:50;;;;;;;0.47;0.47;;;;;;;3.29;100.00;101282.41;5078746;28;20043;-80
2024/01/26 03:09:15;;;;;;;0.50;0.50;;;;;;;3.17;100.00;101288.63;5078993;28;20028;-80
2024/01/26 03:11:42;;;;;;;0.50;0.50;;;;;;;3.14;100.00;101298.66;5078811;28;20427;-80
2024/01/26 03:14:09;;;;;;;0.50;0.50;;;;;;;3.17;100.00;101303.75;5112557;28;20459;-80
2024/01/26 03:16:35;;;;;;;0.50;0.50;;;;;;;3.12;100.00;101314.69;5078810;28;20087;-80
2024/01/26 03:19:01;;;;;;;0.50;0.50;;;;;;;3.12;100.00;101317.34;5095206;28;20040;-79
2024/01/26 03:21:27;;;;;;;0.50;0.50;;;;;;;3.09;100.00;101328.22;5094941;28;20028;-80
2024/01/26 03:23:53;;;;;;;0.50;0.50;;;;;;;3.10;100.00;101329.94;5095425;28;20124;-79
2024/01/26 03:26:18;;;;;;;0.50;0.50;;;;;;;3.15;100.00;101338.41;5095562;28;20066;-79
2024/01/26 03:28:45;;;;;;;0.50;0.50;;;;;;;3.13;100.00;101339.50;5095175;28;20031;-79
2024/01/26 03:31:11;;;;;;;0.50;0.50;;;;;;;3.05;100.00;101345.38;5095284;28;20467;-79
2024/01/26 03:33:37;;;;;;;0.50;0.50;;;;;;;2.96;100.00;101349.53;5095561;28;20093;-79
2024/01/26 03:36:05;;;;;;;0.50;0.50;;;;;;;2.85;100.00;101357.44;5079576;28;20065;-79
2024/01/26 03:38:30;;;;;;;0.50;0.50;;;;;;;2.85;100.00;101354.78;5082274;28;20050;-79
2024/01/26 03:40:56;;;;;;;0.50;0.50;;;;;;;2.95;100.00;101369.09;5116008;28;20031;-79
2024/01/26 03:43:22;;;;;;;0.40;0.40;;;;;;;2.95;100.00;101371.75;5082229;28;20382;-79
2024/01/26 03:45:47;;;;;;;0.50;0.50;;;;;;;3.02;100.00;101377.47;5098799;28;20080;-79
2024/01/26 03:48:13;;;;;;;0.60;0.60;;;;;;;3.14;100.00;101384.53;5082012;28;20036;-79
2024/01/26 03:50:39;;;;;;;0.50;0.50;;;;;;;3.30;100.00;101386.91;5082185;28;20485;-79
2024/01/26 03:53:05;;;;;;;0.50;0.50;;;;;;;3.46;100.00;101399.91;5098988;28;20031;-79
2024/01/26 03:55:31;;;;;;;0.50;0.50;;;;;;;3.50;100.00;101410.22;5098735;28;20035;-81
2024/01/26 03:57:56;;;;;;;0.50;0.50;;;;;;;3.49;100.00;101421.81;5115695;28;20421;-79
2024/01/26 04:00:22;;;;;;;0.50;0.50;;;;;;;3.55;100.00;101443.56;5115588;28;20027;-79
2024/01/26 04:02:47;;;;;;;0.50;0.50;;;;;;;3.67;100.00;101450.66;5115397;28;20020;-79
2024/01/26 04:05:13;;;;;;;0.50;0.50;;;;;;;3.57;100.00;101452.28;5082073;28;20494;-79
2024/01/26 04:07:39;;;;;;;0.50;0.50;;;;;;;3.24;100.00;101459.13;5116680;28;20039;-79
2024/01/26 04:10:05;;;;;;;0.50;0.50;;;;;;;2.94;100.00;101460.38;5098243;28;20392;-80
2024/01/26 04:12:33;;;;;;;0.50;0.50;;;;;;;2.71;100.00;101461.16;5115284;28;20391;-79
2024/01/26 04:14:59;;;;;;;0.50;0.50;;;;;;;2.58;100.00;101464.66;5098020;28;20096;-79
2024/01/26 04:17:24;;;;;;;0.50;0.50;;;;;;;2.52;100.00;101474.88;5097600;28;20118;-79
2024/01/26 04:19:52;;;;;;;0.45;0.45;;;;;;;2.48;100.00;101497.25;5098526;28;20387;-79
2024/01/26 04:22:18;;;;;;;0.50;0.50;;;;;;;2.66;100.00;101495.13;5081539;28;20382;-79
2024/01/26 04:24:43;;;;;;;0.50;0.50;;;;;;;2.70;100.00;101507.22;5098287;28;20042;-79
2024/01/26 04:27:09;;;;;;;0.50;0.50;;;;;;;2.57;100.00;101513.41;5098145;28;20032;-79
2024/01/26 04:29:35;;;;;;;0.47;0.47;;;;;;;2.57;100.00;101512.56;5081569;28;20127;-79
2024/01/26 04:32:00;;;;;;;0.50;0.50;;;;;;;2.47;100.00;101519.44;5114740;28;20062;-80
2024/01/26 04:34:26;;;;;;;0.50;0.50;;;;;;;2.57;100.00;101529.34;5098360;28;20031;-79
2024/01/26 04:36:51;;;;;;;0.50;0.50;;;;;;;2.47;100.00;101533.56;5114557;28;20475;-79
2024/01/26 04:39:17;;;;;;;0.50;0.50;;;;;;;2.58;100.00;101532.84;5097850;28;20024;-79
2024/01/26 04:41:43;;;;;;;0.60;0.60;;;;;;;2.71;100.00;101540.81;5097576;28;20035;-79
2024/01/26 04:44:09;;;;;;;0.52;0.52;;;;;;;2.75;100.00;101547.59;5081251;28;20038;-79
2024/01/26 04:46:36;;;;;;;0.50;0.50;;;;;;;2.67;100.00;101556.09;5081297;28;20082;-79
2024/01/26 04:49:02;;;;;;;0.50;0.50;;;;;;;2.67;100.00;101560.56;5113753;28;20039;-79
2024/01/26 04:51:27;;;;;;;0.50;0.50;;;;;;;2.54;100.00;101564.06;5097470;28;20059;-79
2024/01/26 04:53:53;;;;;;;0.50;0.50;;;;;;;2.57;100.00;101569.16;5081039;28;20447;-79
2024/01/26 04:56:20;;;;;;;0.50;0.50;;;;;;;2.61;100.00;101581.25;5080652;28;20040;-80
2024/01/26 04:58:46;;;;;;;0.50;0.50;;;;;;;2.72;100.00;101577.88;5097473;28;20061;-79
2024/01/26 05:01:12;;;;;;;0.55;0.55;;;;;;;2.74;100.00;101586.59;5097459;28;20059;-79
2024/01/26 05:03:37;;;;;;;0.50;0.50;;;;;;;2.75;100.00;101587.44;5080781;28;20417;-79
2024/01/26 05:06:04;;;;;;;0.50;0.50;;;;;;;2.74;100.00;101594.56;5097203;28;20031;-79
2024/01/26 05:08:29;;;;;;;0.40;0.40;;;;;;;2.69;100.00;101590.50;5097623;28;20092;-79
2024/01/26 05:10:55;;;;;;;0.50;0.50;;;;;;;2.76;100.00;101600.63;5080768;28;20118;-79
2024/01/26 05:13:21;;;;;;;0.90;0.75;;;;;;;2.83;100.00;101604.56;5080658;28;20035;-79
2024/01/26 05:15:46;;;;;;;5.60;1.92;;;;;;;2.77;100.00;101610.28;5096946;28;20106;-79
2024/01/26 05:18:12;;;;;;;7.38;1.35;;;;;;;2.73;100.00;101606.16;5096982;28;20035;-80
2024/01/26 05:20:38;;;;;;;10.43;1.58;;;;;;;2.72;100.00;101615.03;5096900;28;20028;-79
2024/01/26 05:23:04;;;;;;;8.00;1.65;;;;;;;2.76;100.00;101623.69;5080409;28;20031;-79
2024/01/26 05:25:30;;;;;;;6.85;1.20;;;;;;;2.67;100.00;101616.31;5080469;28;20077;-79
2024/01/26 05:27:55;;;;;;;6.07;1.42;;;;;;;2.63;100.00;101631.63;5097067;28;20104;-79
2024/01/26 05:30:21;;;;;;;4.93;1.20;;;;;;;2.60;100.00;101626.50;5097052;28;20031;-79
2024/01/26 05:32:47;;;;;;;9.27;1.65;;;;;;;2.52;100.00;101627.03;5097039;28;20482;-78
2024/01/26 05:35:12;;;;;;;7.50;1.08;;;;;;;2.42;100.00;101625.94;5096737;28;20390;-79
2024/01/26 05:37:38;;;;;;;4.20;1.33;;;;;;;2.34;100.00;101633.56;5096968;28;20102;-79
2024/01/26 05:40:06;;;;;;;8.88;1.50;;;;;;;2.34;100.00;101628.25;5097033;28;20113;-79
2024/01/26 05:42:31;;;;;;;11.27;1.67;;;;;;;2.39;100.00;101634.09;5113639;28;20036;-79
2024/01/26 05:44:57;;;;;;;9.63;1.52;;;;;;;2.48;100.00;101636.13;5096458;28;20039;-78
2024/01/26 05:47:23;;;;;;;5.28;1.15;;;;;;;2.56;100.00;101640.94;5080044;28;20027;-79
2024/01/26 05:49:50;;;;;;;6.95;2.15;;;;;;;2.70;100.00;101645.31;5079980;28;20040;-79
2024/01/26 05:52:16;;;;;;;8.40;1.67;;;;;;;2.75;100.00;101648.50;5096595;28;20029;-78
2024/01/26 05:54:42;;;;;;;8.05;1.30;;;;;;;2.66;100.00;101644.69;5113514;28;20477;-79
2024/01/26 05:57:08;;;;;;;6.43;1.80;;;;;;;2.57;100.00;101651.47;5079911;28;20110;-79
2024/01/26 05:59:37;;;;;;;6.40;1.60;;;;;;;2.50;100.00;101654.63;5096532;28;20123;-79
2024/01/26 06:02:03;;;;;;;3.95;1.30;;;;;;;2.39;100.00;101653.53;5096506;28;20028;-79
2024/01/26 06:04:31;;;;;;;3.92;1.08;;;;;;;2.35;100.00;101659.13;5096126;28;20391;-79
2024/01/26 06:06:57;;;;;;;5.72;1.88;;;;;;;2.23;100.00;101671.41;5096355;28;20031;-79
2024/01/26 06:09:23;;;;;;;5.00;1.50;;;;;;;2.30;100.00;101677.16;5079579;28;20035;-79
2024/01/26 06:11:49;;;;;;;6.55;1.67;;;;;;;2.60;100.00;101675.16;5078270;28;20039;-79
2024/01/26 06:14:15;;;;;;;3.42;1.25;;;;;;;2.71;100.00;101686.88;5096029;28;20035;-79
2024/01/26 06:16:40;;;;;;;8.45;1.42;;;;;;;2.83;100.00;101686.91;5096239;28;20073;-78
2024/01/26 06:19:06;;;;;;;7.47;1.83;;;;;;;2.84;100.00;101675.31;5095929;28;20044;-78
2024/01/26 06:21:32;;;;;;;7.55;1.25;;;;;;;2.89;100.00;101682.13;5079286;28;20159;-78
2024/01/26 06:23:59;;;;;;;6.13;1.58;;;;;;;2.93;100.00;101691.59;5096248;28;20066;-79
2024/01/26 06:26:25;;;;;;;11.25;2.05;;;;;;;2.97;100.00;101688.63;5079851;28;20050;-79
2024/01/26 06:28:51;;;;;;;3.00;1.00;;;;;;;2.96;100.00;101700.19;5095895;28;20028;-79
2024/01/26 06:31:17;;;;;;;7.07;1.20;;;;;;;2.85;100.00;101703.56;5062451;28;20399;-79
2024/01/26 06:33:42;;;;;;;4.07;1.23;;;;;;;2.82;100.00;101708.25;5079403;28;20036;-79
2024/01/26 06:36:11;;;;;;;5.45;2.03;;;;;;;2.80;100.00;101713.66;5078627;28;20134;-78
2024/01/26 06:38:40;;;;;;;2.65;0.70;;;;;;;2.73;100.00;101706.22;5095683;28;20052;-79
2024/01/26 06:41:07;;;;;;;3.25;1.42;;;;;;;2.71;100.00;101713.44;5079788;28;20020;-79
2024/01/26 06:43:33;;;;;;;9.60;1.70;;;;;;;2.75;100.00;101723.75;5079173;28;20038;-78
2024/01/26 06:45:58;;;;;;;6.22;0.98;;;;;;;2.72;100.00;101723.09;5079185;28;20035;-79
2024/01/26 06:48:26;;;;;;;2.80;1.20;;;;;;;2.72;100.00;101729.25;5096653;28;20053;-79
2024/01/26 06:50:52;;;;;;;6.55;1.55;;;;;;;2.73;100.00;101730.13;5079456;28;20039;-78
2024/01/26 06:53:18;;;;;;;4.68;1.35;;;;;;;2.77;100.00;101736.91;5112721;28;20039;-78
2024/01/26 06:55:45;;;;;;;14.63;2.28;;;;;;;2.74;100.00;101742.44;5095751;28;20035;-78
2024/01/26 06:58:10;;;;;;;4.88;1.88;;;;;;;2.69;100.00;101749.84;5095886;28;20252;-77
2024/01/26 07:00:36;;;;;;;9.15;1.63;;;;;;;2.67;100.00;101751.75;5078856;28;20122;-78
2024/01/26 07:03:02;;;;;;;12.38;2.13;;;;;;;2.61;100.00;101756.50;5095776;28;20035;-78
2024/01/26 07:05:28;;;;;;;3.72;1.20;;;;;;;2.54;100.00;101768.50;5078673;28;20119;-78
2024/01/26 07:07:54;;;;;;;9.15;1.58;;;;;;;2.49;100.00;101767.06;5078965;28;20142;-78
2024/01/26 07:10:20;;;;;;;8.48;1.83;;;;;;;2.47;100.00;101771.63;5095768;28;20043;-78
2024/01/26 07:12:46;;;;;;;9.68;1.88;;;;;;;2.34;100.00;101783.03;5082923;28;20402;-78
2024/01/26 07:15:11;;;;;;;8.35;1.73;;;;;;;2.19;100.00;101790.13;5082994;28;20382;-77
2024/01/26 07:17:37;;;;;;;11.32;1.90;;;;;;;2.12;100.00;101796.81;5082495;28;20036;-78
2024/01/26 07:20:04;;;;;;;17.20;2.35;;;;;;;2.12;100.00;101804.75;5116457;28;20034;-78
2024/01/26 07:22:30;;;;;;;11.90;1.70;;;;;;;2.14;100.00;101813.47;5099405;28;20038;-77
2024/01/26 07:24:56;;;;;;;6.35;1.83;;;;;;;2.14;100.00;101817.91;5082632;28;20134;-77
2024/01/26 07:27:22;;;;;;;8.57;1.92;;;;;;;2.13;100.00;101824.19;5099378;28;20062;-78
2024/01/26 07:29:47;;;;;;;8.50;1.63;;;;;;;2.12;100.00;101825.13;5082425;28;20470;-77
2024/01/26 07:32:14;;;;;;;6.82;1.67;;;;;;;2.08;100.00;101836.88;5082263;28;20066;-78
2024/01/26 07:34:39;;;;;;;9.90;1.48;;;;;;;2.08;100.00;101839.53;5082599;28;20043;-78
2024/01/26 07:37:05;;;;;;;9.15;1.42;;;;;;;2.06;100.00;101836.94;5083212;28;20080;-78
2024/01/26 07:39:31;;;;;;;5.90;1.42;;;;;;;2.03;100.00;101837.16;5082163;28;20459;-78
2024/01/26 07:41:57;;;;;;;10.55;2.13;;;;;;;1.96;100.00;101851.75;5098737;28;20028;-78
2024/01/26 07:44:22;;;;;;;6.78;1.80;;;;;;;1.95;100.00;101848.22;5082308;28;20039;-78
2024/01/26 07:46:48;;;;;;;12.88;2.13;;;;;;;1.92;100.00;101856.38;5082014;28;20028;-78
2024/01/26 07:49:14;;;;;;;2.70;1.48;;;;;;;1.91;100.00;101859.13;5099329;28;20368;-78
2024/01/26 07:51:39;;;;;;;9.93;1.92;;;;;;;1.89;100.00;101864.53;5082281;28;20429;-78
2024/01/26 07:54:06;;;;;;;10.88;1.77;;;;;;;1.86;100.00;101866.50;5098826;28;20049;-78
2024/01/26 07:56:32;;;;;;;9.25;2.42;;;;;;;1.78;100.00;101861.66;5082087;28;20459;-78
2024/01/26 07:58:57;;;;;;;10.40;2.63;;;;;;;1.75;100.00;101872.47;5098816;28;20024;-78
2024/01/26 08:01:23;;;;;;;6.82;2.03;;;;;;;1.78;100.00;101879.38;5081738;28;20463;-78
2024/01/26 08:03:49;;;;;;;10.50;2.10;;;;;;;1.90;100.00;101883.94;5081502;28;20122;-78
2024/01/26 08:06:15;;;;;;;9.43;1.75;;;;;;;2.15;100.00;101900.09;5081827;28;20372;-78
2024/01/26 08:08:41;;;;;;;3.47;1.13;;;;;;;2.42;100.00;101904.66;5081722;28;20080;-78
2024/01/26 08:11:09;;;;;;;6.85;1.25;;;;;;;2.61;100.00;101899.03;5081731;28;20046;-78
2024/01/26 08:13:35;;;;;;;6.63;1.70;;;;;;;2.69;100.00;101917.16;5081964;28;20032;-78
2024/01/26 08:16:00;;;;;;;9.60;2.35;;;;;;;2.54;100.00;101916.28;5081723;28;20073;-77
2024/01/26 08:18:28;;;;;;;5.55;1.40;;;;;;;2.57;100.00;101906.34;5081487;28;20063;-78
2024/01/26 08:20:56;;;;;;;11.82;2.00;;;;;;;2.55;100.00;101912.72;5098270;28;20119;-78
2024/01/26 08:23:23;;;;;;;9.20;2.78;;;;;;;2.59;100.00;101914.19;5097061;28;20084;-78
2024/01/26 08:25:48;;;;;;;9.20;2.08;;;;;;;2.63;100.00;101919.22;5082166;28;20031;-78
2024/01/26 08:28:14;;;;;;;2.47;0.80;;;;;;;2.68;100.00;101921.63;5081576;28;20395;-77
2024/01/26 08:30:41;;;;;;;3.40;0.90;;;;;;;2.66;100.00;101927.97;5081506;28;20418;-77
2024/01/26 08:33:07;;;;;;;5.85;1.10;;;;;;;2.57;100.00;101938.22;5098930;28;20028;-78
2024/01/26 08:35:33;;;;;;;2.67;0.93;;;;;;;2.53;100.00;101942.00;5081500;28;20391;-78
2024/01/26 08:37:58;;;;;;;5.60;1.33;;;;;;;2.57;100.00;101938.22;5080997;28;20031;-78
2024/01/26 08:40:24;;;;;;;8.75;1.33;;;;;;;2.57;100.00;101948.84;5081202;28;20089;-77
2024/01/26 08:42:50;;;;;;;2.00;1.05;;;;;;;2.57;100.00;101959.47;5081281;28;20134;-78
2024/01/26 08:45:16;;;;;;;2.70;1.08;;;;;;;2.55;100.00;101955.19;5081094;28;20084;-78
2024/01/26 08:47:41;;;;;;;5.70;1.08;;;;;;;2.57;100.00;101974.53;5097588;28;20032;-78
2024/01/26 08:50:08;;;;;;;4.97;1.10;;;;;;;2.58;100.00;101974.44;5080972;28;20043;-78
2024/01/26 08:52:34;;;;;;;3.22;1.00;;;;;;;2.68;100.00;101985.34;5114163;28;20119;-77
2024/01/26 08:55:00;;;;;;;6.10;1.17;;;;;;;2.71;100.00;101989.63;5080736;28;20127;-77
2024/01/26 08:57:25;;;;;;;5.40;1.17;;;;;;;2.67;100.00;101982.78;5080755;28;20024;-78
2024/01/26 08:59:53;;;;;;;5.88;1.55;;;;;;;2.66;100.00;101997.84;5114251;28;20101;-77
2024/01/26 09:02:19;;;;;;;9.05;2.15;;;;;;;2.77;100.00;102005.16;5079870;28;20080;-77
2024/01/26 09:04:44;;;;;;;6.50;2.35;;;;;;;2.81;100.00;102002.22;5080797;28;20425;-78
2024/01/26 09:07:17;;;;;;;7.18;2.58;;;;;;;2.78;100.00;102006.84;5080496;28;20046;-78
2024/01/26 09:09:43;;;;;;;4.90;1.60;;;;;;;2.85;100.00;102013.50;5081651;28;20039;-78
2024/01/26 09:12:09;;;;;;;5.53;2.13;;;;;;;2.86;100.00;102013.44;5080433;28;20032;-79
2024/01/26 09:14:35;;;;;;;6.32;1.52;;;;;;;2.96;100.00;102019.00;5080657;28;20493;-78
2024/01/26 09:17:00;;;;;;;8.52;2.08;;;;;;;3.16;100.00;102024.91;5097657;28;20035;-78
2024/01/26 09:19:27;;;;;;;16.52;2.65;;;;;;;3.42;100.00;102028.56;5098088;28;20031;-78
2024/01/26 09:21:52;;;;;;;12.38;1.63;;;;;;;3.79;100.00;102039.47;5079966;28;20404;-78
2024/01/26 09:24:18;;;;;;;5.45;1.38;;;;;;;4.10;100.00;102049.81;5080373;28;20031;-78
2024/01/26 09:26:44;;;;;;;4.00;1.48;;;;;;;4.18;100.00;102058.13;5080192;28;20485;-78
2024/01/26 09:29:09;;;;;;;7.80;1.60;;;;;;;4.04;100.00;102044.88;5080265;28;20028;-78
2024/01/26 09:31:35;;;;;;;8.75;2.03;;;;;;;3.90;100.00;102055.59;5079899;28;20038;-79
2024/01/26 09:34:03;;;;;;;6.80;2.10;;;;;;;3.95;100.00;102059.66;5079371;28;20391;-77
2024/01/26 09:36:28;;;;;;;8.10;1.80;;;;;;;4.13;100.00;102062.91;5096774;28;20076;-77
2024/01/26 09:38:54;;;;;;;4.78;1.35;;;;;;;4.20;100.00;102066.00;5096852;28;20418;-77
2024/01/26 09:41:19;;;;;;;5.05;1.45;;;;;;;4.14;100.00;102056.63;5080012;28;20027;-77
2024/01/26 09:43:45;;;;;;;5.85;1.70;;;;;;;4.89;100.00;102063.94;5080001;28;20042;-77
2024/01/26 09:46:11;;;;;;;6.78;2.03;;;;;;;5.65;100.00;102062.97;5079997;28;20043;-77
2024/01/26 09:48:38;;;;;;;8.23;2.33;;;;;;;5.72;100.00;102064.25;5096338;28;20024;-77
2024/01/26 09:51:04;;;;;;;13.25;2.42;;;;;;;5.23;100.00;102075.78;5096685;28;20035;-77
2024/01/26 09:53:33;;;;;;;8.00;2.05;;;;;;;5.02;100.00;102082.63;5113537;28;20038;-77
2024/01/26 09:55:59;;;;;;;8.27;2.47;;;;;;;4.94;100.00;102099.13;5113186;28;20031;-77
2024/01/26 09:58:25;;;;;;;5.60;1.30;;;;;;;4.93;100.00;102102.78;5096234;28;20088;-77
2024/01/26 10:00:54;;;;;;;6.05;1.55;;;;;;;4.92;100.00;102105.53;5079332;28;20040;-77
2024/01/26 10:03:23;;;;;;;4.18;1.83;;;;;;;4.96;100.00;102115.03;5079736;28;20042;-77
2024/01/26 10:05:49;;;;;;;8.57;1.52;;;;;;;5.09;100.00;102105.22;5096149;28;20028;-77
2024/01/26 10:08:15;;;;;;;5.10;1.33;;;;;;;5.53;100.00;102111.03;5079633;28;20482;-77
2024/01/26 10:10:41;;;;;;;7.00;1.70;;;;;;;5.79;100.00;102122.50;5096528;28;20114;-77
2024/01/26 10:13:07;;;;;;;11.35;1.70;;;;;;;6.36;100.00;102121.88;5079563;28;20454;-78
2024/01/26 10:15:33;;;;;;;9.30;1.42;;;;;;;6.65;100.00;102121.50;5080067;28;20036;-78
2024/01/26 10:18:00;;;;;;;4.93;1.23;;;;;;;6.44;100.00;102124.84;5112880;28;20036;-77
2024/01/26 10:20:26;;;;;;;6.88;1.48;;;;;;;5.93;100.00;102133.94;5113221;28;20040;-77
2024/01/26 10:22:52;;;;;;;6.20;1.63;;;;;;;5.94;100.00;102138.28;5079445;28;20031;-77
2024/01/26 10:25:19;;;;;;;7.70;1.60;;;;;;;5.79;100.00;102136.69;5096660;28;20046;-77
2024/01/26 10:27:44;;;;;;;11.07;1.70;;;;;;;5.85;100.00;102138.94;5079372;28;20043;-77
2024/01/26 10:30:11;;;;;;;5.68;2.00;;;;;;;5.64;100.00;102143.16;5079247;28;20100;-77
2024/01/26 10:32:37;;;;;;;9.18;2.25;;;;;;;5.75;100.00;102137.06;5096187;28;20059;-78
2024/01/26 10:35:04;;;;;;;6.85;2.30;;;;;;;6.42;100.00;102134.78;5079157;28;20074;-78
2024/01/26 10:37:31;;;;;;;5.45;1.67;;;;;;;7.30;100.00;102142.28;5096291;28;20027;-78
2024/01/26 10:39:59;;;;;;;10.05;1.98;;;;;;;7.72;100.00;102143.38;5078444;28;20047;-77
2024/01/26 10:42:26;;;;;;;10.65;2.33;;;;;;;7.98;100.00;102134.22;5078873;28;20059;-78
2024/01/26 10:44:53;;;;;;;8.65;2.03;;;;;;;8.20;100.00;102135.97;5078190;28;20038;-78
2024/01/26 10:47:19;;;;;;;4.93;1.58;;;;;;;8.30;100.00;102131.56;5077801;28;20043;-77
2024/01/26 10:49:49;;;;;;;3.25;1.60;;;;;;;8.30;100.00;102136.91;5078820;28;20067;-77
2024/01/26 10:52:21;;;;;;;9.40;2.15;;;;;;;8.19;100.00;102140.50;5096157;28;20486;-77
2024/01/26 10:54:52;;;;;;;11.82;2.00;;;;;;;7.77;100.00;102150.19;5096052;28;20050;-77
2024/01/26 10:57:21;;;;;;;5.95;1.70;;;;;;;7.92;100.00;102157.84;5062282;28;20031;-77
2024/01/26 10:59:48;;;;;;;4.20;1.42;;;;;;;8.43;100.00;102166.28;5079841;28;20050;-77
2024/01/26 11:02:18;;;;;;;8.70;1.88;;;;;;;8.70;100.00;102169.31;5078595;28;20028;-78
2024/01/26 11:04:44;;;;;;;4.30;1.77;;;;;;;8.76;100.00;102163.47;5078411;28;20028;-77
2024/01/26 11:07:10;;;;;;;8.90;1.88;;;;;;;8.74;100.00;102170.78;5095731;28;20032;-78
2024/01/26 11:09:38;;;;;;;3.85;1.25;;;;;;;8.58;100.00;102171.22;5078925;28;20072;-78
2024/01/26 11:12:08;;;;;;;4.82;1.52;;;;;;;7.96;100.00;102170.97;5078568;28;20039;-77
2024/01/26 11:14:34;;;;;;;6.57;1.60;;;;;;;8.03;100.00;102164.16;5078808;28;20524;-77
2024/01/26 11:17:10;;;;;;;7.80;1.52;;;;;;;7.98;100.00;102171.72;5078701;28;20028;-77
2024/01/26 11:19:38;;;;;;;8.75;2.10;;;;;;;7.75;100.00;102187.78;5112067;28;20042;-78